sensor_id;sensor_type;location;lat;lon;timestamp;P1;durP1;ratioP1;P2;durP2;ratioP2
44248;SDS011;29923;48.718;9.272;2023-08-06T00:00:20;16.80;;;11.50;;
44248;SDS011;29923;48.718;9.272;2023-08-06T00:02:45;27.73;;;18.20;;
44248;SDS011;29923;48.718;9.272;2023-08-06T00:05:11;14.25;;;11.05;;
44248;SDS011;29923;48.718;9.272;2023-08-06T00:07:36;24.95;;;15.88;;
44248;SDS011;29923;48.718;9.272;2023-08-06T00:10:02;12.02;;;9.70;;
44248;SDS011;29923;48.718;9.272;2023-08-06T00:12:27;13.30;;;9.48;;
44248;SDS011;29923;48.718;9.272;2023-08-06T00:14:53;15.18;;;11.02;;
44248;SDS011;29923;48.718;9.272;2023-08-06T00:17:18;14.45;;;10.30;;
44248;SDS011;29923;48.718;9.272;2023-08-06T00:19:44;9.95;;;7.28;;
44248;SDS011;29923;48.718;9.272;2023-08-06T00:22:09;9.57;;;7.70;;
44248;SDS011;29923;48.718;9.272;2023-08-06T00:24:34;11.13;;;7.72;;
44248;SDS011;29923;48.718;9.272;2023-08-06T00:27:00;11.48;;;8.38;;
44248;SDS011;29923;48.718;9.272;2023-08-06T00:29:25;15.38;;;10.13;;
44248;SDS011;29923;48.718;9.272;2023-08-06T00:31:51;12.57;;;9.00;;
44248;SDS011;29923;48.718;9.272;2023-08-06T00:34:16;10.57;;;7.50;;
44248;SDS011;29923;48.718;9.272;2023-08-06T00:36:41;10.38;;;6.80;;
44248;SDS011;29923;48.718;9.272;2023-08-06T00:39:07;14.82;;;10.25;;
44248;SDS011;29923;48.718;9.272;2023-08-06T00:41:32;9.10;;;6.40;;
44248;SDS011;29923;48.718;9.272;2023-08-06T00:43:58;7.93;;;6.50;;
44248;SDS011;29923;48.718;9.272;2023-08-06T00:46:23;11.95;;;7.93;;
44248;SDS011;29923;48.718;9.272;2023-08-06T00:48:49;9.05;;;7.05;;
44248;SDS011;29923;48.718;9.272;2023-08-06T00:51:15;11.93;;;9.55;;
44248;SDS011;29923;48.718;9.272;2023-08-06T00:53:41;9.20;;;6.85;;
44248;SDS011;29923;48.718;9.272;2023-08-06T00:56:06;7.70;;;6.32;;
44248;SDS011;29923;48.718;9.272;2023-08-06T00:58:32;13.38;;;9.63;;
44248;SDS011;29923;48.718;9.272;2023-08-06T01:00:58;7.35;;;6.45;;
44248;SDS011;29923;48.718;9.272;2023-08-06T01:03:24;11.40;;;7.90;;
44248;SDS011;29923;48.718;9.272;2023-08-06T01:05:49;12.88;;;9.60;;
44248;SDS011;29923;48.718;9.272;2023-08-06T01:08:18;11.13;;;6.90;;
44248;SDS011;29923;48.718;9.272;2023-08-06T01:14:06;10.20;;;7.95;;
44248;SDS011;29923;48.718;9.272;2023-08-06T01:19:01;11.20;;;7.75;;
44248;SDS011;29923;48.718;9.272;2023-08-06T01:21:27;24.48;;;12.98;;
44248;SDS011;29923;48.718;9.272;2023-08-06T01:23:52;13.10;;;7.82;;
44248;SDS011;29923;48.718;9.272;2023-08-06T01:31:22;12.25;;;9.30;;
44248;SDS011;29923;48.718;9.272;2023-08-06T01:33:49;9.60;;;7.40;;
44248;SDS011;29923;48.718;9.272;2023-08-06T01:36:16;12.60;;;8.93;;
44248;SDS011;29923;48.718;9.272;2023-08-06T01:38:42;7.53;;;6.45;;
44248;SDS011;29923;48.718;9.272;2023-08-06T01:41:08;11.73;;;9.77;;
44248;SDS011;29923;48.718;9.272;2023-08-06T01:43:33;8.88;;;6.45;;
44248;SDS011;29923;48.718;9.272;2023-08-06T01:45:58;10.85;;;6.85;;
44248;SDS011;29923;48.718;9.272;2023-08-06T01:48:24;9.05;;;7.88;;
44248;SDS011;29923;48.718;9.272;2023-08-06T01:50:49;8.13;;;5.65;;
44248;SDS011;29923;48.718;9.272;2023-08-06T01:53:14;8.80;;;7.47;;
44248;SDS011;29923;48.718;9.272;2023-08-06T01:55:40;9.27;;;7.32;;
44248;SDS011;29923;48.718;9.272;2023-08-06T01:58:05;10.25;;;7.20;;
44248;SDS011;29923;48.718;9.272;2023-08-06T02:00:30;8.65;;;5.05;;
44248;SDS011;29923;48.718;9.272;2023-08-06T02:02:56;8.18;;;6.43;;
44248;SDS011;29923;48.718;9.272;2023-08-06T02:05:21;5.22;;;4.20;;
44248;SDS011;29923;48.718;9.272;2023-08-06T02:07:46;6.05;;;3.72;;
44248;SDS011;29923;48.718;9.272;2023-08-06T02:10:12;5.88;;;3.80;;
44248;SDS011;29923;48.718;9.272;2023-08-06T02:12:37;4.50;;;3.47;;
44248;SDS011;29923;48.718;9.272;2023-08-06T02:15:03;4.70;;;3.63;;
44248;SDS011;29923;48.718;9.272;2023-08-06T02:17:28;4.20;;;3.15;;
44248;SDS011;29923;48.718;9.272;2023-08-06T02:19:54;4.07;;;3.20;;
44248;SDS011;29923;48.718;9.272;2023-08-06T02:22:19;4.90;;;3.13;;
44248;SDS011;29923;48.718;9.272;2023-08-06T02:24:44;6.53;;;3.40;;
44248;SDS011;29923;48.718;9.272;2023-08-06T02:27:10;6.75;;;4.15;;
44248;SDS011;29923;48.718;9.272;2023-08-06T02:29:35;4.97;;;2.95;;
44248;SDS011;29923;48.718;9.272;2023-08-06T02:32:00;6.50;;;4.10;;
44248;SDS011;29923;48.718;9.272;2023-08-06T02:34:27;6.70;;;3.20;;
44248;SDS011;29923;48.718;9.272;2023-08-06T02:36:52;5.75;;;2.95;;
44248;SDS011;29923;48.718;9.272;2023-08-06T02:39:18;6.82;;;3.90;;
44248;SDS011;29923;48.718;9.272;2023-08-06T02:41:44;8.55;;;3.88;;
44248;SDS011;29923;48.718;9.272;2023-08-06T02:44:09;4.63;;;2.80;;
44248;SDS011;29923;48.718;9.272;2023-08-06T02:46:34;5.22;;;3.00;;
44248;SDS011;29923;48.718;9.272;2023-08-06T02:49:00;4.07;;;2.50;;
44248;SDS011;29923;48.718;9.272;2023-08-06T02:51:25;4.57;;;2.60;;
44248;SDS011;29923;48.718;9.272;2023-08-06T02:53:50;3.90;;;2.40;;
44248;SDS011;29923;48.718;9.272;2023-08-06T02:56:16;7.63;;;2.83;;
44248;SDS011;29923;48.718;9.272;2023-08-06T02:58:41;6.00;;;3.35;;
44248;SDS011;29923;48.718;9.272;2023-08-06T03:01:06;6.40;;;3.17;;
44248;SDS011;29923;48.718;9.272;2023-08-06T03:03:32;5.03;;;2.78;;
44248;SDS011;29923;48.718;9.272;2023-08-06T03:05:58;3.35;;;2.80;;
44248;SDS011;29923;48.718;9.272;2023-08-06T03:08:23;3.25;;;2.72;;
44248;SDS011;29923;48.718;9.272;2023-08-06T03:10:49;6.03;;;2.60;;
44248;SDS011;29923;48.718;9.272;2023-08-06T03:13:15;8.63;;;3.35;;
44248;SDS011;29923;48.718;9.272;2023-08-06T03:15:41;9.07;;;3.45;;
44248;SDS011;29923;48.718;9.272;2023-08-06T03:18:06;4.75;;;2.60;;
44248;SDS011;29923;48.718;9.272;2023-08-06T03:20:32;4.30;;;2.85;;
44248;SDS011;29923;48.718;9.272;2023-08-06T03:22:57;11.38;;;3.65;;
44248;SDS011;29923;48.718;9.272;2023-08-06T03:25:23;7.13;;;3.35;;
44248;SDS011;29923;48.718;9.272;2023-08-06T03:27:48;4.05;;;3.05;;
44248;SDS011;29923;48.718;9.272;2023-08-06T03:30:13;4.30;;;2.38;;
44248;SDS011;29923;48.718;9.272;2023-08-06T03:32:39;5.57;;;2.67;;
44248;SDS011;29923;48.718;9.272;2023-08-06T03:35:04;4.35;;;2.70;;
44248;SDS011;29923;48.718;9.272;2023-08-06T03:37:30;4.80;;;2.65;;
44248;SDS011;29923;48.718;9.272;2023-08-06T03:39:55;4.13;;;2.05;;
44248;SDS011;29923;48.718;9.272;2023-08-06T03:42:21;3.25;;;2.30;;
44248;SDS011;29923;48.718;9.272;2023-08-06T03:44:46;5.05;;;2.17;;
44248;SDS011;29923;48.718;9.272;2023-08-06T03:47:12;3.05;;;2.40;;
44248;SDS011;29923;48.718;9.272;2023-08-06T03:49:38;3.28;;;2.15;;
44248;SDS011;29923;48.718;9.272;2023-08-06T03:52:03;5.20;;;2.20;;
44248;SDS011;29923;48.718;9.272;2023-08-06T03:54:29;4.95;;;2.50;;
44248;SDS011;29923;48.718;9.272;2023-08-06T03:56:55;4.28;;;2.08;;
44248;SDS011;29923;48.718;9.272;2023-08-06T03:59:20;3.67;;;2.10;;
44248;SDS011;29923;48.718;9.272;2023-08-06T04:01:45;4.10;;;2.40;;
44248;SDS011;29923;48.718;9.272;2023-08-06T04:04:11;4.90;;;2.15;;
44248;SDS011;29923;48.718;9.272;2023-08-06T04:06:36;3.97;;;2.20;;
44248;SDS011;29923;48.718;9.272;2023-08-06T04:09:01;5.22;;;2.15;;
44248;SDS011;29923;48.718;9.272;2023-08-06T04:11:27;10.60;;;2.50;;
44248;SDS011;29923;48.718;9.272;2023-08-06T04:13:53;5.35;;;2.13;;
44248;SDS011;29923;48.718;9.272;2023-08-06T04:16:20;5.10;;;2.55;;
44248;SDS011;29923;48.718;9.272;2023-08-06T04:18:45;6.38;;;1.90;;
44248;SDS011;29923;48.718;9.272;2023-08-06T04:21:11;4.07;;;2.33;;
44248;SDS011;29923;48.718;9.272;2023-08-06T04:23:36;4.60;;;2.25;;
44248;SDS011;29923;48.718;9.272;2023-08-06T04:26:02;4.55;;;1.95;;
44248;SDS011;29923;48.718;9.272;2023-08-06T04:28:27;5.88;;;2.10;;
44248;SDS011;29923;48.718;9.272;2023-08-06T04:30:52;4.72;;;2.10;;
44248;SDS011;29923;48.718;9.272;2023-08-06T04:33:18;4.97;;;2.13;;
44248;SDS011;29923;48.718;9.272;2023-08-06T04:35:44;3.17;;;1.92;;
44248;SDS011;29923;48.718;9.272;2023-08-06T04:38:10;4.20;;;2.17;;
44248;SDS011;29923;48.718;9.272;2023-08-06T04:40:35;2.35;;;1.80;;
44248;SDS011;29923;48.718;9.272;2023-08-06T04:43:01;2.88;;;1.70;;
44248;SDS011;29923;48.718;9.272;2023-08-06T04:45:27;4.80;;;1.42;;
44248;SDS011;29923;48.718;9.272;2023-08-06T04:47:52;6.40;;;1.85;;
44248;SDS011;29923;48.718;9.272;2023-08-06T04:50:18;4.15;;;1.80;;
44248;SDS011;29923;48.718;9.272;2023-08-06T04:52:44;2.20;;;1.52;;
44248;SDS011;29923;48.718;9.272;2023-08-06T04:55:09;2.40;;;1.50;;
44248;SDS011;29923;48.718;9.272;2023-08-06T04:57:34;3.72;;;1.77;;
44248;SDS011;29923;48.718;9.272;2023-08-06T05:00:00;13.00;;;2.42;;
44248;SDS011;29923;48.718;9.272;2023-08-06T05:02:25;2.42;;;1.20;;
44248;SDS011;29923;48.718;9.272;2023-08-06T05:04:50;2.05;;;1.17;;
44248;SDS011;29923;48.718;9.272;2023-08-06T05:07:16;2.35;;;1.25;;
44248;SDS011;29923;48.718;9.272;2023-08-06T05:09:41;2.55;;;1.20;;
44248;SDS011;29923;48.718;9.272;2023-08-06T05:12:07;3.22;;;1.40;;
44248;SDS011;29923;48.718;9.272;2023-08-06T05:14:32;5.47;;;1.23;;
44248;SDS011;29923;48.718;9.272;2023-08-06T05:16:57;3.40;;;1.45;;
44248;SDS011;29923;48.718;9.272;2023-08-06T05:19:23;2.10;;;0.93;;
44248;SDS011;29923;48.718;9.272;2023-08-06T05:21:48;3.78;;;1.05;;
44248;SDS011;29923;48.718;9.272;2023-08-06T05:24:13;2.97;;;1.20;;
44248;SDS011;29923;48.718;9.272;2023-08-06T05:26:39;2.03;;;0.90;;
44248;SDS011;29923;48.718;9.272;2023-08-06T05:29:04;1.60;;;0.95;;
44248;SDS011;29923;48.718;9.272;2023-08-06T05:31:29;2.22;;;0.90;;
44248;SDS011;29923;48.718;9.272;2023-08-06T05:33:55;4.35;;;1.00;;
44248;SDS011;29923;48.718;9.272;2023-08-06T05:36:20;2.30;;;1.02;;
44248;SDS011;29923;48.718;9.272;2023-08-06T05:38:46;1.70;;;1.00;;
44248;SDS011;29923;48.718;9.272;2023-08-06T05:41:11;2.92;;;1.00;;
44248;SDS011;29923;48.718;9.272;2023-08-06T05:43:37;1.95;;;0.90;;
44248;SDS011;29923;48.718;9.272;2023-08-06T05:46:02;4.57;;;0.85;;
44248;SDS011;29923;48.718;9.272;2023-08-06T05:48:29;6.88;;;0.98;;
44248;SDS011;29923;48.718;9.272;2023-08-06T05:50:54;4.05;;;1.00;;
44248;SDS011;29923;48.718;9.272;2023-08-06T05:53:20;2.38;;;1.00;;
44248;SDS011;29923;48.718;9.272;2023-08-06T05:55:45;2.20;;;1.00;;
44248;SDS011;29923;48.718;9.272;2023-08-06T05:58:10;3.80;;;2.55;;
44248;SDS011;29923;48.718;9.272;2023-08-06T06:00:36;3.05;;;1.15;;
44248;SDS011;29923;48.718;9.272;2023-08-06T06:03:01;1.60;;;0.70;;
44248;SDS011;29923;48.718;9.272;2023-08-06T06:05:28;4.15;;;0.85;;
44248;SDS011;29923;48.718;9.272;2023-08-06T06:07:53;2.80;;;1.13;;
44248;SDS011;29923;48.718;9.272;2023-08-06T06:10:18;5.22;;;1.00;;
44248;SDS011;29923;48.718;9.272;2023-08-06T06:12:44;5.88;;;1.88;;
44248;SDS011;29923;48.718;9.272;2023-08-06T06:15:09;1.80;;;0.90;;
44248;SDS011;29923;48.718;9.272;2023-08-06T06:17:34;2.55;;;0.82;;
44248;SDS011;29923;48.718;9.272;2023-08-06T06:20:00;3.00;;;0.98;;
44248;SDS011;29923;48.718;9.272;2023-08-06T06:22:26;4.47;;;0.90;;
44248;SDS011;29923;48.718;9.272;2023-08-06T06:24:51;4.38;;;0.90;;
44248;SDS011;29923;48.718;9.272;2023-08-06T06:27:16;2.30;;;1.15;;
44248;SDS011;29923;48.718;9.272;2023-08-06T06:29:42;2.67;;;0.90;;
44248;SDS011;29923;48.718;9.272;2023-08-06T06:32:07;6.07;;;1.20;;
44248;SDS011;29923;48.718;9.272;2023-08-06T06:34:32;4.45;;;1.08;;
44248;SDS011;29923;48.718;9.272;2023-08-06T06:36:58;2.20;;;0.80;;
44248;SDS011;29923;48.718;9.272;2023-08-06T06:39:23;3.03;;;1.13;;
44248;SDS011;29923;48.718;9.272;2023-08-06T06:41:48;3.70;;;0.95;;
44248;SDS011;29923;48.718;9.272;2023-08-06T06:44:14;2.95;;;0.60;;
44248;SDS011;29923;48.718;9.272;2023-08-06T06:46:40;1.90;;;0.63;;
44248;SDS011;29923;48.718;9.272;2023-08-06T06:49:05;2.40;;;0.93;;
44248;SDS011;29923;48.718;9.272;2023-08-06T06:51:31;5.60;;;0.80;;
44248;SDS011;29923;48.718;9.272;2023-08-06T06:53:57;1.27;;;0.60;;
44248;SDS011;29923;48.718;9.272;2023-08-06T06:56:22;6.20;;;0.70;;
44248;SDS011;29923;48.718;9.272;2023-08-06T06:58:47;3.08;;;1.08;;
44248;SDS011;29923;48.718;9.272;2023-08-06T07:01:13;3.78;;;0.75;;
44248;SDS011;29923;48.718;9.272;2023-08-06T07:03:38;2.63;;;0.80;;
44248;SDS011;29923;48.718;9.272;2023-08-06T07:06:03;0.98;;;0.85;;
44248;SDS011;29923;48.718;9.272;2023-08-06T07:08:30;2.97;;;0.68;;
44248;SDS011;29923;48.718;9.272;2023-08-06T07:11:05;1.92;;;0.73;;
44248;SDS011;29923;48.718;9.272;2023-08-06T07:13:31;3.78;;;0.70;;
44248;SDS011;29923;48.718;9.272;2023-08-06T07:15:57;2.28;;;0.82;;
44248;SDS011;29923;48.718;9.272;2023-08-06T07:18:23;0.52;;;0.50;;
44248;SDS011;29923;48.718;9.272;2023-08-06T07:20:52;3.63;;;0.60;;
44248;SDS011;29923;48.718;9.272;2023-08-06T07:23:19;0.80;;;0.40;;
44248;SDS011;29923;48.718;9.272;2023-08-06T07:25:46;5.70;;;0.50;;
44248;SDS011;29923;48.718;9.272;2023-08-06T07:28:11;1.75;;;0.50;;
44248;SDS011;29923;48.718;9.272;2023-08-06T07:30:40;1.45;;;0.45;;
44248;SDS011;29923;48.718;9.272;2023-08-06T07:33:06;2.10;;;0.50;;
44248;SDS011;29923;48.718;9.272;2023-08-06T07:35:31;3.83;;;0.40;;
44248;SDS011;29923;48.718;9.272;2023-08-06T07:37:57;0.50;;;0.50;;
44248;SDS011;29923;48.718;9.272;2023-08-06T07:40:22;1.38;;;0.40;;
44248;SDS011;29923;48.718;9.272;2023-08-06T07:42:48;1.83;;;0.55;;
44248;SDS011;29923;48.718;9.272;2023-08-06T07:45:13;0.93;;;0.40;;
44248;SDS011;29923;48.718;9.272;2023-08-06T07:47:39;0.30;;;0.25;;
44248;SDS011;29923;48.718;9.272;2023-08-06T07:50:04;0.65;;;0.30;;
44248;SDS011;29923;48.718;9.272;2023-08-06T07:52:30;0.30;;;0.30;;
44248;SDS011;29923;48.718;9.272;2023-08-06T07:54:56;0.35;;;0.30;;
44248;SDS011;29923;48.718;9.272;2023-08-06T07:57:21;1.13;;;0.40;;
44248;SDS011;29923;48.718;9.272;2023-08-06T07:59:46;0.47;;;0.20;;
44248;SDS011;29923;48.718;9.272;2023-08-06T08:02:12;0.52;;;0.38;;
44248;SDS011;29923;48.718;9.272;2023-08-06T08:04:37;1.25;;;0.38;;
44248;SDS011;29923;48.718;9.272;2023-08-06T08:07:02;0.45;;;0.20;;
44248;SDS011;29923;48.718;9.272;2023-08-06T08:09:28;0.95;;;0.38;;
44248;SDS011;29923;48.718;9.272;2023-08-06T08:11:53;0.32;;;0.25;;
44248;SDS011;29923;48.718;9.272;2023-08-06T08:14:19;2.65;;;0.40;;
44248;SDS011;29923;48.718;9.272;2023-08-06T08:16:44;0.57;;;0.40;;
44248;SDS011;29923;48.718;9.272;2023-08-06T08:19:09;0.47;;;0.30;;
44248;SDS011;29923;48.718;9.272;2023-08-06T08:21:35;2.20;;;0.47;;
44248;SDS011;29923;48.718;9.272;2023-08-06T08:24:00;0.80;;;0.38;;
44248;SDS011;29923;48.718;9.272;2023-08-06T08:26:26;0.60;;;0.20;;
44248;SDS011;29923;48.718;9.272;2023-08-06T08:28:53;0.57;;;0.20;;
44248;SDS011;29923;48.718;9.272;2023-08-06T08:31:18;0.50;;;0.30;;
44248;SDS011;29923;48.718;9.272;2023-08-06T08:33:44;1.52;;;0.30;;
44248;SDS011;29923;48.718;9.272;2023-08-06T08:36:09;0.20;;;0.20;;
44248;SDS011;29923;48.718;9.272;2023-08-06T08:38:35;0.40;;;0.30;;
44248;SDS011;29923;48.718;9.272;2023-08-06T08:41:00;0.10;;;0.10;;
44248;SDS011;29923;48.718;9.272;2023-08-06T08:43:25;0.25;;;0.25;;
44248;SDS011;29923;48.718;9.272;2023-08-06T08:45:52;1.83;;;1.73;;
44248;SDS011;29923;48.718;9.272;2023-08-06T08:48:23;0.30;;;0.30;;
44248;SDS011;29923;48.718;9.272;2023-08-06T08:50:49;0.10;;;0.10;;
44248;SDS011;29923;48.718;9.272;2023-08-06T08:53:15;1.02;;;0.28;;
44248;SDS011;29923;48.718;9.272;2023-08-06T08:55:42;0.73;;;0.28;;
44248;SDS011;29923;48.718;9.272;2023-08-06T08:58:08;0.65;;;0.30;;
44248;SDS011;29923;48.718;9.272;2023-08-06T09:00:33;0.30;;;0.30;;
44248;SDS011;29923;48.718;9.272;2023-08-06T09:02:59;1.17;;;0.30;;
44248;SDS011;29923;48.718;9.272;2023-08-06T09:05:26;0.20;;;0.20;;
44248;SDS011;29923;48.718;9.272;2023-08-06T09:07:53;0.32;;;0.20;;
44248;SDS011;29923;48.718;9.272;2023-08-06T09:10:19;0.20;;;0.20;;
44248;SDS011;29923;48.718;9.272;2023-08-06T09:12:48;0.10;;;0.10;;
44248;SDS011;29923;48.718;9.272;2023-08-06T09:15:16;0.38;;;0.22;;
44248;SDS011;29923;48.718;9.272;2023-08-06T09:17:41;0.10;;;0.10;;
44248;SDS011;29923;48.718;9.272;2023-08-06T09:20:13;1.55;;;0.20;;
44248;SDS011;29923;48.718;9.272;2023-08-06T09:22:39;0.47;;;0.10;;
44248;SDS011;29923;48.718;9.272;2023-08-06T09:25:05;0.10;;;0.10;;
44248;SDS011;29923;48.718;9.272;2023-08-06T09:27:35;0.15;;;0.15;;
44248;SDS011;29923;48.718;9.272;2023-08-06T09:30:01;0.30;;;0.17;;
44248;SDS011;29923;48.718;9.272;2023-08-06T09:32:32;3.20;;;0.30;;
44248;SDS011;29923;48.718;9.272;2023-08-06T09:35:18;0.63;;;0.63;;
44248;SDS011;29923;48.718;9.272;2023-08-06T09:37:44;0.47;;;0.20;;
44248;SDS011;29923;48.718;9.272;2023-08-06T09:40:29;0.25;;;0.20;;
44248;SDS011;29923;48.718;9.272;2023-08-06T09:42:56;0.35;;;0.20;;
44248;SDS011;29923;48.718;9.272;2023-08-06T09:45:22;1.30;;;0.20;;
44248;SDS011;29923;48.718;9.272;2023-08-06T09:47:52;0.20;;;0.20;;
44248;SDS011;29923;48.718;9.272;2023-08-06T09:50:21;0.15;;;0.15;;
44248;SDS011;29923;48.718;9.272;2023-08-06T09:52:46;0.90;;;0.30;;
44248;SDS011;29923;48.718;9.272;2023-08-06T09:55:13;1.02;;;0.30;;
44248;SDS011;29923;48.718;9.272;2023-08-06T09:57:42;0.28;;;0.20;;
44248;SDS011;29923;48.718;9.272;2023-08-06T10:00:08;0.15;;;0.10;;
44248;SDS011;29923;48.718;9.272;2023-08-06T10:02:39;0.20;;;0.10;;
44248;SDS011;29923;48.718;9.272;2023-08-06T10:05:05;0.30;;;0.20;;
44248;SDS011;29923;48.718;9.272;2023-08-06T10:07:31;3.00;;;0.13;;
44248;SDS011;29923;48.718;9.272;2023-08-06T10:09:56;1.25;;;0.20;;
44248;SDS011;29923;48.718;9.272;2023-08-06T10:12:22;0.10;;;0.10;;
44248;SDS011;29923;48.718;9.272;2023-08-06T10:14:50;0.10;;;0.10;;
44248;SDS011;29923;48.718;9.272;2023-08-06T10:17:16;0.55;;;0.10;;
44248;SDS011;29923;48.718;9.272;2023-08-06T10:19:41;0.13;;;0.10;;
44248;SDS011;29923;48.718;9.272;2023-08-06T10:22:08;1.20;;;0.43;;
44248;SDS011;29923;48.718;9.272;2023-08-06T10:24:47;0.95;;;0.25;;
44248;SDS011;29923;48.718;9.272;2023-08-06T10:27:12;1.85;;;0.57;;
44248;SDS011;29923;48.718;9.272;2023-08-06T10:29:38;0.43;;;0.30;;
44248;SDS011;29923;48.718;9.272;2023-08-06T10:32:03;0.10;;;0.10;;
44248;SDS011;29923;48.718;9.272;2023-08-06T10:37:34;0.30;;;0.30;;
44248;SDS011;29923;48.718;9.272;2023-08-06T10:40:00;0.90;;;0.30;;
44248;SDS011;29923;48.718;9.272;2023-08-06T10:42:26;1.25;;;0.20;;
44248;SDS011;29923;48.718;9.272;2023-08-06T10:47:40;0.30;;;0.20;;
44248;SDS011;29923;48.718;9.272;2023-08-06T10:50:07;0.32;;;0.20;;
44248;SDS011;29923;48.718;9.272;2023-08-06T10:52:33;0.68;;;0.20;;
44248;SDS011;29923;48.718;9.272;2023-08-06T10:54:59;2.03;;;0.20;;
44248;SDS011;29923;48.718;9.272;2023-08-06T10:57:25;0.25;;;0.20;;
44248;SDS011;29923;48.718;9.272;2023-08-06T10:59:50;0.28;;;0.28;;
44248;SDS011;29923;48.718;9.272;2023-08-06T11:02:16;1.98;;;0.28;;
44248;SDS011;29923;48.718;9.272;2023-08-06T11:04:41;0.47;;;0.30;;
44248;SDS011;29923;48.718;9.272;2023-08-06T11:07:07;0.22;;;0.20;;
44248;SDS011;29923;48.718;9.272;2023-08-06T11:09:32;0.75;;;0.20;;
44248;SDS011;29923;48.718;9.272;2023-08-06T11:11:57;0.52;;;0.30;;
44248;SDS011;29923;48.718;9.272;2023-08-06T11:14:23;0.40;;;0.10;;
44248;SDS011;29923;48.718;9.272;2023-08-06T11:16:48;11.18;;;0.30;;
44248;SDS011;29923;48.718;9.272;2023-08-06T11:19:15;0.80;;;0.45;;
44248;SDS011;29923;48.718;9.272;2023-08-06T11:21:41;0.22;;;0.22;;
44248;SDS011;29923;48.718;9.272;2023-08-06T11:24:09;1.48;;;0.30;;
44248;SDS011;29923;48.718;9.272;2023-08-06T11:26:36;0.95;;;0.28;;
44248;SDS011;29923;48.718;9.272;2023-08-06T11:29:02;0.55;;;0.20;;
44248;SDS011;29923;48.718;9.272;2023-08-06T11:31:28;0.52;;;0.20;;
44248;SDS011;29923;48.718;9.272;2023-08-06T11:33:53;0.30;;;0.20;;
44248;SDS011;29923;48.718;9.272;2023-08-06T11:36:29;0.52;;;0.32;;
44248;SDS011;29923;48.718;9.272;2023-08-06T11:38:58;0.63;;;0.35;;
44248;SDS011;29923;48.718;9.272;2023-08-06T11:41:24;0.30;;;0.30;;
44248;SDS011;29923;48.718;9.272;2023-08-06T11:43:49;1.27;;;0.30;;
44248;SDS011;29923;48.718;9.272;2023-08-06T11:46:15;0.93;;;0.40;;
44248;SDS011;29923;48.718;9.272;2023-08-06T11:48:52;0.75;;;0.40;;
44248;SDS011;29923;48.718;9.272;2023-08-06T11:51:22;0.95;;;0.73;;
44248;SDS011;29923;48.718;9.272;2023-08-06T11:53:48;0.98;;;0.57;;
44248;SDS011;29923;48.718;9.272;2023-08-06T11:56:14;0.50;;;0.40;;
44248;SDS011;29923;48.718;9.272;2023-08-06T11:58:41;0.32;;;0.32;;
44248;SDS011;29923;48.718;9.272;2023-08-06T12:01:06;0.40;;;0.40;;
44248;SDS011;29923;48.718;9.272;2023-08-06T12:03:32;1.27;;;0.40;;
44248;SDS011;29923;48.718;9.272;2023-08-06T12:05:58;0.63;;;0.47;;
44248;SDS011;29923;48.718;9.272;2023-08-06T12:08:26;0.95;;;0.70;;
44248;SDS011;29923;48.718;9.272;2023-08-06T12:10:51;2.78;;;0.55;;
44248;SDS011;29923;48.718;9.272;2023-08-06T12:13:18;3.00;;;0.65;;
44248;SDS011;29923;48.718;9.272;2023-08-06T12:15:44;0.88;;;0.82;;
44248;SDS011;29923;48.718;9.272;2023-08-06T12:18:10;0.98;;;0.70;;
44248;SDS011;29923;48.718;9.272;2023-08-06T12:20:35;0.88;;;0.40;;
44248;SDS011;29923;48.718;9.272;2023-08-06T12:23:01;0.95;;;0.55;;
44248;SDS011;29923;48.718;9.272;2023-08-06T12:25:26;1.90;;;0.60;;
44248;SDS011;29923;48.718;9.272;2023-08-06T12:27:51;1.85;;;0.60;;
44248;SDS011;29923;48.718;9.272;2023-08-06T12:30:17;1.35;;;0.60;;
44248;SDS011;29923;48.718;9.272;2023-08-06T12:32:42;1.05;;;0.70;;
44248;SDS011;29923;48.718;9.272;2023-08-06T12:35:08;1.13;;;0.70;;
44248;SDS011;29923;48.718;9.272;2023-08-06T12:37:33;1.58;;;0.75;;
44248;SDS011;29923;48.718;9.272;2023-08-06T12:39:59;1.85;;;0.98;;
44248;SDS011;29923;48.718;9.272;2023-08-06T12:42:24;3.55;;;1.20;;
44248;SDS011;29923;48.718;9.272;2023-08-06T12:44:50;0.73;;;0.40;;
44248;SDS011;29923;48.718;9.272;2023-08-06T12:47:16;1.58;;;0.60;;
44248;SDS011;29923;48.718;9.272;2023-08-06T12:49:42;1.00;;;0.50;;
44248;SDS011;29923;48.718;9.272;2023-08-06T12:52:08;0.43;;;0.40;;
44248;SDS011;29923;48.718;9.272;2023-08-06T12:54:34;0.55;;;0.50;;
44248;SDS011;29923;48.718;9.272;2023-08-06T12:57:01;1.92;;;1.10;;
44248;SDS011;29923;48.718;9.272;2023-08-06T12:59:27;0.50;;;0.50;;
44248;SDS011;29923;48.718;9.272;2023-08-06T13:01:53;1.52;;;0.80;;
44248;SDS011;29923;48.718;9.272;2023-08-06T13:04:18;0.70;;;0.40;;
44248;SDS011;29923;48.718;9.272;2023-08-06T13:06:43;1.80;;;0.50;;
44248;SDS011;29923;48.718;9.272;2023-08-06T13:09:09;0.95;;;0.45;;
44248;SDS011;29923;48.718;9.272;2023-08-06T13:11:35;0.70;;;0.50;;
44248;SDS011;29923;48.718;9.272;2023-08-06T13:14:11;1.13;;;0.70;;
44248;SDS011;29923;48.718;9.272;2023-08-06T13:16:37;4.32;;;0.75;;
44248;SDS011;29923;48.718;9.272;2023-08-06T13:19:04;2.08;;;0.77;;
44248;SDS011;29923;48.718;9.272;2023-08-06T13:24:00;1.52;;;0.82;;
44248;SDS011;29923;48.718;9.272;2023-08-06T13:26:27;1.52;;;0.77;;
44248;SDS011;29923;48.718;9.272;2023-08-06T13:28:53;1.75;;;0.75;;
44248;SDS011;29923;48.718;9.272;2023-08-06T13:31:18;5.15;;;0.73;;
44248;SDS011;29923;48.718;9.272;2023-08-06T13:33:44;2.25;;;0.93;;
44248;SDS011;29923;48.718;9.272;2023-08-06T13:36:09;1.45;;;0.70;;
44248;SDS011;29923;48.718;9.272;2023-08-06T13:38:34;2.05;;;0.70;;
44248;SDS011;29923;48.718;9.272;2023-08-06T13:41:00;6.18;;;0.43;;
44248;SDS011;29923;48.718;9.272;2023-08-06T13:43:26;0.63;;;0.40;;
44248;SDS011;29923;48.718;9.272;2023-08-06T13:45:51;1.08;;;0.50;;
44248;SDS011;29923;48.718;9.272;2023-08-06T13:48:16;1.02;;;0.60;;
44248;SDS011;29923;48.718;9.272;2023-08-06T13:50:42;1.25;;;0.60;;
44248;SDS011;29923;48.718;9.272;2023-08-06T13:53:07;1.95;;;0.73;;
44248;SDS011;29923;48.718;9.272;2023-08-06T13:55:32;3.10;;;0.35;;
44248;SDS011;29923;48.718;9.272;2023-08-06T13:57:58;0.47;;;0.40;;
44248;SDS011;29923;48.718;9.272;2023-08-06T14:00:23;1.50;;;0.40;;
44248;SDS011;29923;48.718;9.272;2023-08-06T14:02:48;0.63;;;0.30;;
44248;SDS011;29923;48.718;9.272;2023-08-06T14:05:14;0.40;;;0.28;;
44248;SDS011;29923;48.718;9.272;2023-08-06T14:07:39;2.05;;;0.40;;
44248;SDS011;29923;48.718;9.272;2023-08-06T14:10:05;1.38;;;0.40;;
44248;SDS011;29923;48.718;9.272;2023-08-06T14:12:31;7.15;;;0.80;;
44248;SDS011;29923;48.718;9.272;2023-08-06T14:14:56;0.80;;;0.40;;
44248;SDS011;29923;48.718;9.272;2023-08-06T14:17:22;0.63;;;0.47;;
44248;SDS011;29923;48.718;9.272;2023-08-06T14:19:47;0.93;;;0.50;;
44248;SDS011;29923;48.718;9.272;2023-08-06T14:22:12;2.63;;;0.60;;
44248;SDS011;29923;48.718;9.272;2023-08-06T14:24:38;2.35;;;0.60;;
44248;SDS011;29923;48.718;9.272;2023-08-06T14:27:03;1.88;;;0.40;;
44248;SDS011;29923;48.718;9.272;2023-08-06T14:29:31;0.60;;;0.40;;
44248;SDS011;29923;48.718;9.272;2023-08-06T14:31:56;1.30;;;0.60;;
44248;SDS011;29923;48.718;9.272;2023-08-06T14:34:21;1.42;;;0.57;;
44248;SDS011;29923;48.718;9.272;2023-08-06T14:36:47;1.05;;;0.50;;
44248;SDS011;29923;48.718;9.272;2023-08-06T14:39:12;0.40;;;0.40;;
44248;SDS011;29923;48.718;9.272;2023-08-06T14:41:38;0.75;;;0.70;;
44248;SDS011;29923;48.718;9.272;2023-08-06T14:44:03;0.77;;;0.40;;
44248;SDS011;29923;48.718;9.272;2023-08-06T14:46:28;0.80;;;0.40;;
44248;SDS011;29923;48.718;9.272;2023-08-06T14:48:54;0.77;;;0.50;;
44248;SDS011;29923;48.718;9.272;2023-08-06T14:51:19;0.88;;;0.52;;
44248;SDS011;29923;48.718;9.272;2023-08-06T14:53:45;2.58;;;1.00;;
44248;SDS011;29923;48.718;9.272;2023-08-06T14:56:10;1.17;;;0.73;;